createdAt,value
2019-02-14T00:03:53.117Z,8.67
2019-02-14T00:13:58.527Z,9.23
2019-02-14T00:24:03.869Z,10.73
2019-02-14T00:34:09.192Z,9.33
2019-02-14T00:44:14.507Z,8.40
2019-02-14T00:54:19.811Z,8.13
2019-02-14T01:04:25.152Z,8.33
2019-02-14T01:14:30.582Z,7.90
2019-02-14T01:24:35.960Z,8.03
2019-02-14T01:34:41.420Z,7.60
2019-02-14T01:44:46.647Z,6.77
2019-02-14T01:54:51.964Z,7.70
2019-02-14T02:04:57.327Z,7.60
2019-02-14T02:15:02.645Z,6.57
2019-02-14T02:25:08.933Z,6.50
2019-02-14T02:35:14.270Z,6.90
2019-02-14T02:45:19.566Z,6.90
2019-02-14T02:55:25.119Z,6.63
2019-02-14T03:05:31.456Z,7.07
2019-02-14T03:15:36.752Z,7.33
2019-02-14T03:25:42.044Z,7.20
2019-02-14T03:35:47.386Z,7.13
2019-02-14T03:45:53.661Z,7.63
2019-02-14T03:55:58.968Z,6.57
2019-02-14T04:06:04.259Z,6.63
2019-02-14T04:16:09.697Z,5.17
2019-02-14T04:26:14.989Z,6.23
2019-02-14T04:36:20.335Z,5.40
2019-02-14T04:46:25.844Z,7.93
2019-02-14T04:56:31.139Z,6.23
2019-02-14T05:06:44.084Z,6.57
2019-02-14T05:16:43.635Z,5.30
2019-02-14T05:26:48.961Z,5.40
2019-02-14T05:36:55.311Z,6.03
2019-02-14T05:47:00.762Z,6.40
2019-02-14T05:57:06.405Z,6.40
2019-02-14T06:07:11.799Z,6.60
2019-02-14T06:17:17.400Z,5.87
2019-02-14T06:27:22.667Z,6.10
2019-02-14T06:37:28.295Z,5.60
2019-02-14T06:47:33.613Z,5.80
2019-02-14T06:57:38.961Z,6.47
2019-02-14T07:07:44.445Z,5.63
2019-02-14T07:17:49.793Z,5.97
2019-02-14T07:27:56.368Z,6.23
2019-02-14T07:38:01.802Z,5.57
2019-02-14T07:48:07.370Z,6.07
2019-02-14T07:58:12.877Z,5.37
2019-02-14T08:08:18.457Z,5.50
2019-02-14T08:18:23.750Z,6.47
2019-02-14T08:28:29.291Z,6.33
2019-02-14T08:38:34.782Z,7.00
2019-02-14T08:48:40.149Z,5.70
2019-02-14T08:58:45.688Z,7.10
2019-02-14T09:08:51.122Z,7.43
2019-02-14T09:18:56.434Z,7.70
2019-02-14T09:29:01.985Z,9.00
2019-02-14T09:39:07.426Z,7.63
2019-02-14T09:49:12.837Z,7.03
2019-02-14T09:59:18.575Z,7.30
2019-02-14T10:09:24.038Z,6.83
2019-02-14T10:19:29.570Z,7.03
2019-02-14T10:29:34.938Z,7.53
2019-02-14T10:39:40.581Z,6.50
2019-02-14T10:49:46.091Z,6.17
2019-02-14T10:59:51.489Z,6.07
2019-02-14T11:09:57.228Z,6.47
2019-02-14T11:20:02.731Z,6.27
2019-02-14T11:30:09.459Z,6.90
2019-02-14T11:40:15.023Z,6.47
2019-02-14T11:50:20.369Z,5.27
2019-02-14T12:00:27.124Z,6.43
2019-02-14T12:10:32.513Z,5.63
2019-02-14T12:20:37.913Z,6.13
2019-02-14T12:30:43.588Z,5.57
2019-02-14T12:40:48.929Z,5.70
2019-02-14T12:50:54.671Z,5.93
2019-02-14T13:01:00.381Z,5.43
2019-02-14T13:11:05.623Z,5.50
2019-02-14T13:21:11.096Z,6.10
2019-02-14T13:31:16.927Z,5.47
2019-02-14T13:41:30.955Z,4.97
2019-02-14T13:51:29.632Z,4.27
2019-02-14T14:01:35.045Z,4.90
2019-02-14T14:11:40.373Z,4.80
2019-02-14T14:21:45.795Z,5.30
2019-02-14T14:31:51.178Z,6.07
2019-02-14T14:41:56.561Z,6.17
2019-02-14T14:52:02.248Z,5.30
2019-02-14T15:02:07.726Z,5.80
2019-02-14T15:12:13.457Z,5.67
2019-02-14T15:22:19.283Z,6.93
2019-02-14T15:32:25.084Z,6.50
2019-02-14T15:42:30.462Z,6.70
2019-02-14T15:52:36.313Z,7.60
2019-02-14T16:02:41.882Z,6.83
2019-02-14T16:12:47.715Z,7.60
2019-02-14T16:22:53.258Z,7.80
2019-02-14T16:32:58.729Z,9.13
2019-02-14T16:43:04.380Z,8.13
2019-02-14T16:53:10.145Z,9.63
2019-02-14T17:03:15.598Z,9.70
2019-02-14T17:13:21.198Z,10.50
2019-02-14T17:23:26.757Z,11.97
2019-02-14T17:33:32.564Z,11.97
2019-02-14T17:43:38.308Z,13.90
2019-02-14T17:53:43.648Z,14.07
2019-02-14T18:03:49.090Z,13.43
2019-02-14T18:13:54.621Z,14.80
2019-02-14T18:24:00.096Z,13.47
2019-02-14T18:34:06.035Z,13.03
2019-02-14T18:44:11.443Z,13.30
2019-02-14T18:54:16.850Z,13.23
2019-02-14T19:04:22.391Z,15.00
2019-02-14T19:14:27.803Z,14.53
2019-02-14T19:24:33.509Z,15.40
2019-02-14T19:34:38.930Z,14.97
2019-02-14T19:44:44.426Z,13.47
2019-02-14T19:54:50.073Z,14.97
2019-02-14T20:04:55.417Z,14.20
2019-02-14T20:15:00.873Z,15.03
2019-02-14T20:25:06.770Z,15.70
2019-02-14T20:35:13.223Z,16.67
2019-02-14T20:45:18.800Z,14.90
2019-02-14T20:55:24.164Z,14.03
2019-02-14T21:05:29.726Z,15.23
2019-02-14T21:15:35.027Z,14.70
2019-02-14T21:25:40.664Z,13.93
2019-02-14T21:35:46.293Z,15.07
2019-02-14T21:45:51.776Z,15.80
2019-02-14T21:55:57.034Z,13.90
2019-02-14T22:06:02.452Z,13.83
2019-02-14T22:16:07.817Z,13.83
2019-02-14T22:26:13.143Z,13.87
2019-02-14T22:36:18.843Z,13.50
2019-02-14T22:46:24.335Z,13.17
2019-02-14T22:56:29.669Z,11.93
2019-02-14T23:06:35.750Z,13.50
2019-02-14T23:16:41.105Z,15.83
2019-02-14T23:26:46.723Z,17.00
2019-02-14T23:36:52.176Z,17.43
2019-02-14T23:46:57.566Z,17.60
2019-02-14T23:57:03.050Z,18.73
